sensor_id;sensor_type;location;lat;lon;timestamp;temperature;humidity
50989;DHT22;37008;52.210;21.112;2022-12-20T00:00:16;-1.30;99.90
50989;DHT22;37008;52.210;21.112;2022-12-20T00:02:42;-1.30;99.90
50989;DHT22;37008;52.210;21.112;2022-12-20T00:05:09;-1.30;99.90
50989;DHT22;37008;52.210;21.112;2022-12-20T00:07:34;-1.30;99.90
50989;DHT22;37008;52.210;21.112;2022-12-20T00:10:00;-1.20;99.90
50989;DHT22;37008;52.210;21.112;2022-12-20T00:12:27;-1.20;99.90
50989;DHT22;37008;52.210;21.112;2022-12-20T00:14:53;-1.20;99.90
50989;DHT22;37008;52.210;21.112;2022-12-20T00:17:20;-1.20;99.90
50989;DHT22;37008;52.210;21.112;2022-12-20T00:19:45;-1.10;99.90
50989;DHT22;37008;52.210;21.112;2022-12-20T00:22:11;-1.10;99.90
50989;DHT22;37008;52.210;21.112;2022-12-20T00:24:36;-1.10;99.90
50989;DHT22;37008;52.210;21.112;2022-12-20T00:27:02;-1.10;99.90
50989;DHT22;37008;52.210;21.112;2022-12-20T00:29:27;-1.10;99.90
50989;DHT22;37008;52.210;21.112;2022-12-20T00:31:53;-1.00;99.90
50989;DHT22;37008;52.210;21.112;2022-12-20T00:34:18;-1.00;99.90
50989;DHT22;37008;52.210;21.112;2022-12-20T00:36:45;-1.00;99.90
50989;DHT22;37008;52.210;21.112;2022-12-20T00:39:10;-1.00;99.90
50989;DHT22;37008;52.210;21.112;2022-12-20T00:41:38;-1.00;99.90
50989;DHT22;37008;52.210;21.112;2022-12-20T00:44:04;-1.00;99.90
50989;DHT22;37008;52.210;21.112;2022-12-20T00:46:30;-1.00;99.90
50989;DHT22;37008;52.210;21.112;2022-12-20T00:48:56;-1.00;99.90
50989;DHT22;37008;52.210;21.112;2022-12-20T00:51:25;-1.00;99.90
50989;DHT22;37008;52.210;21.112;2022-12-20T00:53:52;-0.90;99.90
50989;DHT22;37008;52.210;21.112;2022-12-20T00:56:18;-0.90;99.90
50989;DHT22;37008;52.210;21.112;2022-12-20T00:58:44;-0.90;99.90
50989;DHT22;37008;52.210;21.112;2022-12-20T01:01:24;-0.90;99.90
50989;DHT22;37008;52.210;21.112;2022-12-20T01:03:51;-0.90;99.90
50989;DHT22;37008;52.210;21.112;2022-12-20T01:06:18;-0.80;99.90
50989;DHT22;37008;52.210;21.112;2022-12-20T01:08:44;-0.90;99.90
50989;DHT22;37008;52.210;21.112;2022-12-20T01:11:14;-0.90;99.90
50989;DHT22;37008;52.210;21.112;2022-12-20T01:13:42;-0.90;99.90
50989;DHT22;37008;52.210;21.112;2022-12-20T01:16:23;-0.80;99.90
50989;DHT22;37008;52.210;21.112;2022-12-20T01:18:49;-0.80;99.90
50989;DHT22;37008;52.210;21.112;2022-12-20T01:21:17;-0.80;99.90
50989;DHT22;37008;52.210;21.112;2022-12-20T01:23:43;-0.80;99.90
50989;DHT22;37008;52.210;21.112;2022-12-20T01:26:12;-0.80;99.90
50989;DHT22;37008;52.210;21.112;2022-12-20T01:28:39;-0.80;99.90
50989;DHT22;37008;52.210;21.112;2022-12-20T01:31:07;-0.80;99.90
50989;DHT22;37008;52.210;21.112;2022-12-20T01:33:35;-0.80;99.90
50989;DHT22;37008;52.210;21.112;2022-12-20T01:36:04;-0.70;99.90
50989;DHT22;37008;52.210;21.112;2022-12-20T01:38:30;-0.70;99.90
50989;DHT22;37008;52.210;21.112;2022-12-20T01:40:56;-0.70;99.90
50989;DHT22;37008;52.210;21.112;2022-12-20T01:43:23;-0.70;99.90
50989;DHT22;37008;52.210;21.112;2022-12-20T01:45:50;-0.60;99.90
50989;DHT22;37008;52.210;21.112;2022-12-20T01:48:22;-0.60;99.90
50989;DHT22;37008;52.210;21.112;2022-12-20T01:50:49;-0.60;99.90
50989;DHT22;37008;52.210;21.112;2022-12-20T01:53:20;-0.60;99.90
50989;DHT22;37008;52.210;21.112;2022-12-20T01:55:47;-0.50;99.90
50989;DHT22;37008;52.210;21.112;2022-12-20T01:58:15;-0.50;99.90
50989;DHT22;37008;52.210;21.112;2022-12-20T02:00:43;-0.50;99.90
50989;DHT22;37008;52.210;21.112;2022-12-20T02:03:11;-0.50;99.90
50989;DHT22;37008;52.210;21.112;2022-12-20T02:05:39;-0.40;99.90
50989;DHT22;37008;52.210;21.112;2022-12-20T02:08:06;-0.40;99.90
50989;DHT22;37008;52.210;21.112;2022-12-20T02:11:02;-0.40;99.90
50989;DHT22;37008;52.210;21.112;2022-12-20T02:13:55;-0.30;99.90
50989;DHT22;37008;52.210;21.112;2022-12-20T02:16:27;-0.30;99.90
50989;DHT22;37008;52.210;21.112;2022-12-20T02:22:15;-0.20;99.90
50989;DHT22;37008;52.210;21.112;2022-12-20T02:24:59;-0.20;99.90
50989;DHT22;37008;52.210;21.112;2022-12-20T02:27:40;-0.20;99.90
50989;DHT22;37008;52.210;21.112;2022-12-20T02:30:25;-0.10;99.90
50989;DHT22;37008;52.210;21.112;2022-12-20T02:33:02;-0.10;99.90
50989;DHT22;37008;52.210;21.112;2022-12-20T02:35:31;-0.10;99.90
50989;DHT22;37008;52.210;21.112;2022-12-20T02:37:59;-0.10;99.90
50989;DHT22;37008;52.210;21.112;2022-12-20T02:40:27;-0.10;99.90
50989;DHT22;37008;52.210;21.112;2022-12-20T02:43:01;0.00;99.90
50989;DHT22;37008;52.210;21.112;2022-12-20T02:45:33;0.00;99.90
50989;DHT22;37008;52.210;21.112;2022-12-20T02:48:05;0.00;99.90
50989;DHT22;37008;52.210;21.112;2022-12-20T02:50:45;0.00;99.90
50989;DHT22;37008;52.210;21.112;2022-12-20T02:53:14;0.00;99.90
50989;DHT22;37008;52.210;21.112;2022-12-20T02:56:00;0.10;99.90
50989;DHT22;37008;52.210;21.112;2022-12-20T02:58:28;0.10;99.90
50989;DHT22;37008;52.210;21.112;2022-12-20T03:00:56;0.10;99.90
50989;DHT22;37008;52.210;21.112;2022-12-20T03:03:23;0.10;99.90
50989;DHT22;37008;52.210;21.112;2022-12-20T03:05:52;0.10;99.90
50989;DHT22;37008;52.210;21.112;2022-12-20T03:08:20;0.10;99.90
50989;DHT22;37008;52.210;21.112;2022-12-20T03:10:46;0.20;99.90
50989;DHT22;37008;52.210;21.112;2022-12-20T03:13:12;0.20;99.90
50989;DHT22;37008;52.210;21.112;2022-12-20T03:15:38;0.20;99.90
50989;DHT22;37008;52.210;21.112;2022-12-20T03:18:03;0.20;99.90
50989;DHT22;37008;52.210;21.112;2022-12-20T03:20:29;0.30;99.90
50989;DHT22;37008;52.210;21.112;2022-12-20T03:22:55;0.20;99.90
50989;DHT22;37008;52.210;21.112;2022-12-20T03:25:20;0.20;99.90
50989;DHT22;37008;52.210;21.112;2022-12-20T03:27:46;0.20;99.90
50989;DHT22;37008;52.210;21.112;2022-12-20T03:30:12;0.30;99.90
50989;DHT22;37008;52.210;21.112;2022-12-20T03:32:38;0.30;99.90
50989;DHT22;37008;52.210;21.112;2022-12-20T03:35:04;0.30;99.90
50989;DHT22;37008;52.210;21.112;2022-12-20T03:37:30;0.30;99.90
50989;DHT22;37008;52.210;21.112;2022-12-20T03:39:55;0.30;99.90
50989;DHT22;37008;52.210;21.112;2022-12-20T03:42:21;0.30;99.90
50989;DHT22;37008;52.210;21.112;2022-12-20T03:44:46;0.30;99.90
50989;DHT22;37008;52.210;21.112;2022-12-20T03:47:12;0.40;99.90
50989;DHT22;37008;52.210;21.112;2022-12-20T03:49:38;0.40;99.90
50989;DHT22;37008;52.210;21.112;2022-12-20T03:52:04;0.40;99.90
50989;DHT22;37008;52.210;21.112;2022-12-20T03:54:29;0.40;99.90
50989;DHT22;37008;52.210;21.112;2022-12-20T03:56:55;0.40;99.90
50989;DHT22;37008;52.210;21.112;2022-12-20T03:59:20;0.40;99.90
50989;DHT22;37008;52.210;21.112;2022-12-20T04:01:46;0.40;99.90
50989;DHT22;37008;52.210;21.112;2022-12-20T04:04:13;0.40;99.90
50989;DHT22;37008;52.210;21.112;2022-12-20T04:06:39;0.40;99.90
50989;DHT22;37008;52.210;21.112;2022-12-20T04:09:05;0.40;99.90
50989;DHT22;37008;52.210;21.112;2022-12-20T04:11:31;0.50;99.90
50989;DHT22;37008;52.210;21.112;2022-12-20T04:13:57;0.50;99.90
50989;DHT22;37008;52.210;21.112;2022-12-20T04:16:25;0.50;99.90
50989;DHT22;37008;52.210;21.112;2022-12-20T04:18:51;0.50;99.90
50989;DHT22;37008;52.210;21.112;2022-12-20T04:21:28;0.50;99.90
50989;DHT22;37008;52.210;21.112;2022-12-20T04:23:55;0.50;99.90
50989;DHT22;37008;52.210;21.112;2022-12-20T04:26:21;0.50;99.90
50989;DHT22;37008;52.210;21.112;2022-12-20T04:28:46;0.50;99.90
50989;DHT22;37008;52.210;21.112;2022-12-20T04:31:12;0.50;99.90
50989;DHT22;37008;52.210;21.112;2022-12-20T04:33:38;0.50;99.90
50989;DHT22;37008;52.210;21.112;2022-12-20T04:36:05;0.50;99.90
50989;DHT22;37008;52.210;21.112;2022-12-20T04:38:31;0.50;99.90
50989;DHT22;37008;52.210;21.112;2022-12-20T04:40:56;0.50;99.90
50989;DHT22;37008;52.210;21.112;2022-12-20T04:43:22;0.50;99.90
50989;DHT22;37008;52.210;21.112;2022-12-20T04:45:50;0.50;99.90
50989;DHT22;37008;52.210;21.112;2022-12-20T04:48:16;0.50;99.90
50989;DHT22;37008;52.210;21.112;2022-12-20T04:50:47;0.50;99.90
50989;DHT22;37008;52.210;21.112;2022-12-20T04:53:12;0.50;99.90
50989;DHT22;37008;52.210;21.112;2022-12-20T04:55:56;0.50;99.90
50989;DHT22;37008;52.210;21.112;2022-12-20T04:58:22;0.50;99.90
50989;DHT22;37008;52.210;21.112;2022-12-20T05:00:48;0.50;99.90
50989;DHT22;37008;52.210;21.112;2022-12-20T05:03:13;0.50;99.90
50989;DHT22;37008;52.210;21.112;2022-12-20T05:05:39;0.40;99.90
50989;DHT22;37008;52.210;21.112;2022-12-20T05:08:05;0.50;99.90
50989;DHT22;37008;52.210;21.112;2022-12-20T05:10:30;0.50;99.90
50989;DHT22;37008;52.210;21.112;2022-12-20T05:12:56;0.50;99.90
50989;DHT22;37008;52.210;21.112;2022-12-20T05:15:21;0.40;99.90
50989;DHT22;37008;52.210;21.112;2022-12-20T05:17:47;0.50;99.90
50989;DHT22;37008;52.210;21.112;2022-12-20T05:20:12;0.40;99.90
50989;DHT22;37008;52.210;21.112;2022-12-20T05:22:38;0.40;99.90
50989;DHT22;37008;52.210;21.112;2022-12-20T05:25:22;0.40;99.90
50989;DHT22;37008;52.210;21.112;2022-12-20T05:28:06;0.40;99.90
50989;DHT22;37008;52.210;21.112;2022-12-20T05:30:32;0.50;99.90
50989;DHT22;37008;52.210;21.112;2022-12-20T05:32:57;0.40;99.90
50989;DHT22;37008;52.210;21.112;2022-12-20T05:35:23;0.50;99.90
50989;DHT22;37008;52.210;21.112;2022-12-20T05:37:49;0.40;99.90
50989;DHT22;37008;52.210;21.112;2022-12-20T05:40:14;0.50;99.90
50989;DHT22;37008;52.210;21.112;2022-12-20T05:42:40;0.60;99.90
50989;DHT22;37008;52.210;21.112;2022-12-20T05:45:06;0.50;99.90
50989;DHT22;37008;52.210;21.112;2022-12-20T05:47:32;0.60;99.90
50989;DHT22;37008;52.210;21.112;2022-12-20T05:50:02;0.50;99.90
50989;DHT22;37008;52.210;21.112;2022-12-20T05:52:28;0.60;99.90
50989;DHT22;37008;52.210;21.112;2022-12-20T05:54:54;0.60;99.90
50989;DHT22;37008;52.210;21.112;2022-12-20T05:57:19;0.60;99.90
50989;DHT22;37008;52.210;21.112;2022-12-20T05:59:45;0.60;99.90
50989;DHT22;37008;52.210;21.112;2022-12-20T06:02:11;0.60;99.90
50989;DHT22;37008;52.210;21.112;2022-12-20T06:04:37;0.60;99.90
50989;DHT22;37008;52.210;21.112;2022-12-20T06:07:03;0.60;99.90
50989;DHT22;37008;52.210;21.112;2022-12-20T06:09:32;0.60;99.90
50989;DHT22;37008;52.210;21.112;2022-12-20T06:11:58;0.70;99.90
50989;DHT22;37008;52.210;21.112;2022-12-20T06:14:24;0.70;99.90
50989;DHT22;37008;52.210;21.112;2022-12-20T06:16:50;0.70;99.90
50989;DHT22;37008;52.210;21.112;2022-12-20T06:19:16;0.70;99.90
50989;DHT22;37008;52.210;21.112;2022-12-20T06:21:41;0.70;99.90
50989;DHT22;37008;52.210;21.112;2022-12-20T06:24:07;0.70;99.90
50989;DHT22;37008;52.210;21.112;2022-12-20T06:26:33;0.70;99.90
50989;DHT22;37008;52.210;21.112;2022-12-20T06:29:05;0.70;99.90
50989;DHT22;37008;52.210;21.112;2022-12-20T06:31:34;0.70;99.90
50989;DHT22;37008;52.210;21.112;2022-12-20T06:34:00;0.70;99.90
50989;DHT22;37008;52.210;21.112;2022-12-20T06:36:26;0.70;99.90
50989;DHT22;37008;52.210;21.112;2022-12-20T06:38:51;0.70;99.90
50989;DHT22;37008;52.210;21.112;2022-12-20T06:41:17;0.70;99.90
50989;DHT22;37008;52.210;21.112;2022-12-20T06:43:43;0.70;99.90
50989;DHT22;37008;52.210;21.112;2022-12-20T06:46:09;0.70;99.90
50989;DHT22;37008;52.210;21.112;2022-12-20T06:48:36;0.70;99.90
50989;DHT22;37008;52.210;21.112;2022-12-20T06:51:02;0.70;99.90
50989;DHT22;37008;52.210;21.112;2022-12-20T06:53:28;0.70;99.90
50989;DHT22;37008;52.210;21.112;2022-12-20T06:55:53;0.70;99.90
50989;DHT22;37008;52.210;21.112;2022-12-20T06:58:19;0.70;99.90
50989;DHT22;37008;52.210;21.112;2022-12-20T07:00:46;0.70;99.90
50989;DHT22;37008;52.210;21.112;2022-12-20T07:03:12;0.70;99.90
50989;DHT22;37008;52.210;21.112;2022-12-20T07:05:39;0.70;99.90
50989;DHT22;37008;52.210;21.112;2022-12-20T07:08:04;0.80;99.90
50989;DHT22;37008;52.210;21.112;2022-12-20T07:10:32;0.80;99.90
50989;DHT22;37008;52.210;21.112;2022-12-20T07:12:58;0.80;99.90
50989;DHT22;37008;52.210;21.112;2022-12-20T07:15:24;0.90;99.90
50989;DHT22;37008;52.210;21.112;2022-12-20T07:17:49;0.90;99.90
50989;DHT22;37008;52.210;21.112;2022-12-20T07:20:16;1.00;99.90
50989;DHT22;37008;52.210;21.112;2022-12-20T07:22:41;1.00;99.90
50989;DHT22;37008;52.210;21.112;2022-12-20T07:25:07;1.00;99.90
50989;DHT22;37008;52.210;21.112;2022-12-20T07:27:33;1.10;99.90
50989;DHT22;37008;52.210;21.112;2022-12-20T07:29:59;1.10;99.90
50989;DHT22;37008;52.210;21.112;2022-12-20T07:32:24;1.20;99.90
50989;DHT22;37008;52.210;21.112;2022-12-20T07:34:50;1.20;99.90
50989;DHT22;37008;52.210;21.112;2022-12-20T07:37:15;1.20;99.90
50989;DHT22;37008;52.210;21.112;2022-12-20T07:39:41;1.20;99.90
50989;DHT22;37008;52.210;21.112;2022-12-20T07:42:07;1.20;99.90
50989;DHT22;37008;52.210;21.112;2022-12-20T07:44:34;1.30;99.90
50989;DHT22;37008;52.210;21.112;2022-12-20T07:46:59;1.30;99.90
50989;DHT22;37008;52.210;21.112;2022-12-20T07:49:25;1.30;99.90
50989;DHT22;37008;52.210;21.112;2022-12-20T07:51:54;1.40;99.90
50989;DHT22;37008;52.210;21.112;2022-12-20T07:54:28;1.40;99.90
50989;DHT22;37008;52.210;21.112;2022-12-20T07:56:57;1.40;99.90
50989;DHT22;37008;52.210;21.112;2022-12-20T07:59:28;1.50;99.90
50989;DHT22;37008;52.210;21.112;2022-12-20T08:01:56;1.60;99.90
50989;DHT22;37008;52.210;21.112;2022-12-20T08:04:24;1.60;99.90
50989;DHT22;37008;52.210;21.112;2022-12-20T08:06:53;1.60;99.90
50989;DHT22;37008;52.210;21.112;2022-12-20T08:09:21;1.70;99.90
50989;DHT22;37008;52.210;21.112;2022-12-20T08:11:49;1.70;99.90
50989;DHT22;37008;52.210;21.112;2022-12-20T08:14:16;1.70;99.90
50989;DHT22;37008;52.210;21.112;2022-12-20T08:16:43;1.70;99.90
50989;DHT22;37008;52.210;21.112;2022-12-20T08:19:09;1.80;99.90
50989;DHT22;37008;52.210;21.112;2022-12-20T08:21:34;1.80;99.90
50989;DHT22;37008;52.210;21.112;2022-12-20T08:24:00;1.80;99.90
50989;DHT22;37008;52.210;21.112;2022-12-20T08:26:25;1.80;99.90
50989;DHT22;37008;52.210;21.112;2022-12-20T08:28:52;1.80;99.90
50989;DHT22;37008;52.210;21.112;2022-12-20T08:31:18;1.80;99.90
50989;DHT22;37008;52.210;21.112;2022-12-20T08:33:44;1.80;99.90
50989;DHT22;37008;52.210;21.112;2022-12-20T08:36:11;1.80;99.90
50989;DHT22;37008;52.210;21.112;2022-12-20T08:38:37;1.90;99.90
50989;DHT22;37008;52.210;21.112;2022-12-20T08:41:11;1.90;99.90
50989;DHT22;37008;52.210;21.112;2022-12-20T08:43:38;1.90;99.90
50989;DHT22;37008;52.210;21.112;2022-12-20T08:46:04;1.90;99.90
50989;DHT22;37008;52.210;21.112;2022-12-20T08:48:32;1.90;99.90
50989;DHT22;37008;52.210;21.112;2022-12-20T08:51:01;2.00;99.90
50989;DHT22;37008;52.210;21.112;2022-12-20T08:53:27;2.00;99.90
50989;DHT22;37008;52.210;21.112;2022-12-20T08:56:01;2.10;99.90
50989;DHT22;37008;52.210;21.112;2022-12-20T08:58:27;2.10;99.90
50989;DHT22;37008;52.210;21.112;2022-12-20T09:00:52;2.20;99.90
50989;DHT22;37008;52.210;21.112;2022-12-20T09:03:18;2.30;99.90
50989;DHT22;37008;52.210;21.112;2022-12-20T09:05:45;2.30;99.90
50989;DHT22;37008;52.210;21.112;2022-12-20T09:08:10;2.40;99.90
50989;DHT22;37008;52.210;21.112;2022-12-20T09:10:36;2.40;99.90
50989;DHT22;37008;52.210;21.112;2022-12-20T09:13:02;2.50;99.90
50989;DHT22;37008;52.210;21.112;2022-12-20T09:15:27;2.50;99.90
50989;DHT22;37008;52.210;21.112;2022-12-20T09:17:54;2.50;99.90
50989;DHT22;37008;52.210;21.112;2022-12-20T09:20:20;2.60;99.90
50989;DHT22;37008;52.210;21.112;2022-12-20T09:22:45;2.60;99.90
50989;DHT22;37008;52.210;21.112;2022-12-20T09:25:11;2.60;99.90
50989;DHT22;37008;52.210;21.112;2022-12-20T09:27:36;2.70;99.90
50989;DHT22;37008;52.210;21.112;2022-12-20T09:30:03;2.70;99.90
50989;DHT22;37008;52.210;21.112;2022-12-20T09:32:28;2.80;99.90
50989;DHT22;37008;52.210;21.112;2022-12-20T09:34:54;2.90;99.90
50989;DHT22;37008;52.210;21.112;2022-12-20T09:37:20;2.90;99.90
50989;DHT22;37008;52.210;21.112;2022-12-20T09:39:48;3.00;99.90
50989;DHT22;37008;52.210;21.112;2022-12-20T09:42:23;3.00;99.90
50989;DHT22;37008;52.210;21.112;2022-12-20T09:44:49;3.00;99.90
50989;DHT22;37008;52.210;21.112;2022-12-20T09:47:18;3.00;99.90
50989;DHT22;37008;52.210;21.112;2022-12-20T09:49:46;3.00;99.90
50989;DHT22;37008;52.210;21.112;2022-12-20T09:59:45;3.20;99.90
50989;DHT22;37008;52.210;21.112;2022-12-20T10:02:12;3.20;99.90
50989;DHT22;37008;52.210;21.112;2022-12-20T10:04:39;3.20;99.90
50989;DHT22;37008;52.210;21.112;2022-12-20T10:08:08;3.20;99.90
50989;DHT22;37008;52.210;21.112;2022-12-20T10:10:37;3.30;99.90
50989;DHT22;37008;52.210;21.112;2022-12-20T10:16:12;3.10;99.90
50989;DHT22;37008;52.210;21.112;2022-12-20T10:19:04;3.10;99.90
50989;DHT22;37008;52.210;21.112;2022-12-20T10:21:54;3.10;99.90
50989;DHT22;37008;52.210;21.112;2022-12-20T10:24:29;3.00;99.90
50989;DHT22;37008;52.210;21.112;2022-12-20T10:26:56;2.90;99.90
50989;DHT22;37008;52.210;21.112;2022-12-20T10:29:22;2.90;99.90
50989;DHT22;37008;52.210;21.112;2022-12-20T10:31:58;2.90;99.90
50989;DHT22;37008;52.210;21.112;2022-12-20T10:34:25;2.90;99.90
50989;DHT22;37008;52.210;21.112;2022-12-20T10:37:13;2.80;99.90
50989;DHT22;37008;52.210;21.112;2022-12-20T10:39:47;2.80;99.90
50989;DHT22;37008;52.210;21.112;2022-12-20T10:42:46;2.90;99.90
50989;DHT22;37008;52.210;21.112;2022-12-20T10:47:44;3.00;99.90
50989;DHT22;37008;52.210;21.112;2022-12-20T10:50:22;3.10;99.90
50989;DHT22;37008;52.210;21.112;2022-12-20T10:58:03;3.20;99.90
50989;DHT22;37008;52.210;21.112;2022-12-20T11:00:31;3.20;99.90
50989;DHT22;37008;52.210;21.112;2022-12-20T11:03:23;3.30;99.90
50989;DHT22;37008;52.210;21.112;2022-12-20T11:05:54;3.30;99.90
50989;DHT22;37008;52.210;21.112;2022-12-20T11:08:20;3.30;99.90
50989;DHT22;37008;52.210;21.112;2022-12-20T11:10:48;3.30;99.90
50989;DHT22;37008;52.210;21.112;2022-12-20T11:13:23;3.30;99.90
50989;DHT22;37008;52.210;21.112;2022-12-20T11:15:51;3.20;99.90
50989;DHT22;37008;52.210;21.112;2022-12-20T11:21:10;3.10;99.90
50989;DHT22;37008;52.210;21.112;2022-12-20T11:27:06;3.10;99.90
50989;DHT22;37008;52.210;21.112;2022-12-20T11:35:31;3.10;99.90
50989;DHT22;37008;52.210;21.112;2022-12-20T11:38:37;3.10;99.90
50989;DHT22;37008;52.210;21.112;2022-12-20T11:46:32;3.30;99.90
50989;DHT22;37008;52.210;21.112;2022-12-20T11:49:24;3.30;99.90
50989;DHT22;37008;52.210;21.112;2022-12-20T11:52:16;3.30;99.90
50989;DHT22;37008;52.210;21.112;2022-12-20T11:54:56;3.40;99.90
50989;DHT22;37008;52.210;21.112;2022-12-20T11:57:30;3.30;99.90
50989;DHT22;37008;52.210;21.112;2022-12-20T12:00:03;3.40;99.90
50989;DHT22;37008;52.210;21.112;2022-12-20T12:05:14;3.50;99.90
50989;DHT22;37008;52.210;21.112;2022-12-20T12:07:44;3.60;99.90
50989;DHT22;37008;52.210;21.112;2022-12-20T12:10:18;3.70;99.90
50989;DHT22;37008;52.210;21.112;2022-12-20T12:12:54;3.80;99.90
50989;DHT22;37008;52.210;21.112;2022-12-20T12:15:39;3.80;99.90
50989;DHT22;37008;52.210;21.112;2022-12-20T12:18:16;3.90;99.90
50989;DHT22;37008;52.210;21.112;2022-12-20T12:26:34;4.10;99.90
50989;DHT22;37008;52.210;21.112;2022-12-20T12:29:03;4.20;99.90
50989;DHT22;37008;52.210;21.112;2022-12-20T12:31:52;4.20;99.90
50989;DHT22;37008;52.210;21.112;2022-12-20T12:34:56;4.20;99.90
50989;DHT22;37008;52.210;21.112;2022-12-20T12:43:01;4.20;99.90
50989;DHT22;37008;52.210;21.112;2022-12-20T12:45:50;4.20;99.90
50989;DHT22;37008;52.210;21.112;2022-12-20T12:48:49;4.10;99.90
50989;DHT22;37008;52.210;21.112;2022-12-20T12:51:30;4.10;99.90
50989;DHT22;37008;52.210;21.112;2022-12-20T12:54:24;4.00;99.90
50989;DHT22;37008;52.210;21.112;2022-12-20T12:56:52;3.90;99.90
50989;DHT22;37008;52.210;21.112;2022-12-20T13:04:58;3.80;99.90
50989;DHT22;37008;52.210;21.112;2022-12-20T13:09:58;3.60;99.90
50989;DHT22;37008;52.210;21.112;2022-12-20T13:17:52;3.50;99.90
50989;DHT22;37008;52.210;21.112;2022-12-20T13:20:31;3.40;99.90
50989;DHT22;37008;52.210;21.112;2022-12-20T13:25:39;3.40;99.90
50989;DHT22;37008;52.210;21.112;2022-12-20T13:33:43;3.30;99.90
50989;DHT22;37008;52.210;21.112;2022-12-20T13:41:40;3.20;99.90
50989;DHT22;37008;52.210;21.112;2022-12-20T13:49:39;3.00;99.90
50989;DHT22;37008;52.210;21.112;2022-12-20T13:54:50;3.00;99.90
50989;DHT22;37008;52.210;21.112;2022-12-20T13:57:22;3.00;99.90
50989;DHT22;37008;52.210;21.112;2022-12-20T13:59:53;3.00;99.90
50989;DHT22;37008;52.210;21.112;2022-12-20T14:02:23;2.90;99.90
50989;DHT22;37008;52.210;21.112;2022-12-20T14:04:59;2.90;99.90
50989;DHT22;37008;52.210;21.112;2022-12-20T14:07:28;2.80;99.90
50989;DHT22;37008;52.210;21.112;2022-12-20T14:09:58;2.80;99.90
50989;DHT22;37008;52.210;21.112;2022-12-20T14:12:24;2.80;99.90
50989;DHT22;37008;52.210;21.112;2022-12-20T14:14:50;2.70;99.90
50989;DHT22;37008;52.210;21.112;2022-12-20T14:17:30;2.70;99.90
50989;DHT22;37008;52.210;21.112;2022-12-20T14:22:36;2.70;99.90
50989;DHT22;37008;52.210;21.112;2022-12-20T14:25:06;2.60;99.90
50989;DHT22;37008;52.210;21.112;2022-12-20T14:27:35;2.60;99.90
50989;DHT22;37008;52.210;21.112;2022-12-20T14:30:03;2.60;99.90
50989;DHT22;37008;52.210;21.112;2022-12-20T14:32:29;2.60;99.90
50989;DHT22;37008;52.210;21.112;2022-12-20T14:34:54;2.60;99.90
50989;DHT22;37008;52.210;21.112;2022-12-20T14:40:02;2.60;99.90
50989;DHT22;37008;52.210;21.112;2022-12-20T14:42:33;2.60;99.90
50989;DHT22;37008;52.210;21.112;2022-12-20T14:45:25;2.60;99.90
50989;DHT22;37008;52.210;21.112;2022-12-20T14:48:00;2.50;99.90
50989;DHT22;37008;52.210;21.112;2022-12-20T14:50:35;2.50;99.90
50989;DHT22;37008;52.210;21.112;2022-12-20T14:53:02;2.50;99.90
50989;DHT22;37008;52.210;21.112;2022-12-20T14:55:34;2.50;99.90
50989;DHT22;37008;52.210;21.112;2022-12-20T14:58:01;2.50;99.90
50989;DHT22;37008;52.210;21.112;2022-12-20T15:00:31;2.50;99.90
50989;DHT22;37008;52.210;21.112;2022-12-20T15:02:58;2.50;99.90
50989;DHT22;37008;52.210;21.112;2022-12-20T15:08:29;2.50;99.90
50989;DHT22;37008;52.210;21.112;2022-12-20T15:11:03;2.40;99.90
50989;DHT22;37008;52.210;21.112;2022-12-20T15:13:37;2.40;99.90
50989;DHT22;37008;52.210;21.112;2022-12-20T15:16:12;2.30;99.90
50989;DHT22;37008;52.210;21.112;2022-12-20T15:18:38;2.30;99.90
50989;DHT22;37008;52.210;21.112;2022-12-20T15:21:10;2.30;99.90
50989;DHT22;37008;52.210;21.112;2022-12-20T15:23:42;2.20;99.90
50989;DHT22;37008;52.210;21.112;2022-12-20T15:26:14;2.20;99.90
50989;DHT22;37008;52.210;21.112;2022-12-20T15:28:39;2.20;99.90
50989;DHT22;37008;52.210;21.112;2022-12-20T15:31:05;2.10;99.90
50989;DHT22;37008;52.210;21.112;2022-12-20T15:33:33;2.10;99.90
50989;DHT22;37008;52.210;21.112;2022-12-20T15:35:59;2.10;99.90
50989;DHT22;37008;52.210;21.112;2022-12-20T15:38:25;2.00;99.90
50989;DHT22;37008;52.210;21.112;2022-12-20T15:41:02;2.10;99.90
50989;DHT22;37008;52.210;21.112;2022-12-20T15:43:33;2.00;99.90
50989;DHT22;37008;52.210;21.112;2022-12-20T15:46:00;2.00;99.90
50989;DHT22;37008;52.210;21.112;2022-12-20T15:48:26;2.00;99.90
50989;DHT22;37008;52.210;21.112;2022-12-20T15:50:57;2.00;99.90
50989;DHT22;37008;52.210;21.112;2022-12-20T15:53:30;2.00;99.90
50989;DHT22;37008;52.210;21.112;2022-12-20T15:55:56;2.00;99.90
50989;DHT22;37008;52.210;21.112;2022-12-20T15:58:25;2.00;99.90
50989;DHT22;37008;52.210;21.112;2022-12-20T16:00:59;2.00;99.90
50989;DHT22;37008;52.210;21.112;2022-12-20T16:03:29;2.00;99.90
50989;DHT22;37008;52.210;21.112;2022-12-20T16:05:55;2.00;99.90
50989;DHT22;37008;52.210;21.112;2022-12-20T16:08:21;2.00;99.90
50989;DHT22;37008;52.210;21.112;2022-12-20T16:10:47;2.00;99.90
50989;DHT22;37008;52.210;21.112;2022-12-20T16:13:16;2.00;99.90
50989;DHT22;37008;52.210;21.112;2022-12-20T16:15:44;2.00;99.90
50989;DHT22;37008;52.210;21.112;2022-12-20T16:18:10;2.00;99.90
50989;DHT22;37008;52.210;21.112;2022-12-20T16:20:39;2.00;99.90
50989;DHT22;37008;52.210;21.112;2022-12-20T16:23:07;2.00;99.90
50989;DHT22;37008;52.210;21.112;2022-12-20T16:25:38;2.00;99.90
50989;DHT22;37008;52.210;21.112;2022-12-20T16:28:03;2.00;99.90
50989;DHT22;37008;52.210;21.112;2022-12-20T16:30:31;2.00;99.90
50989;DHT22;37008;52.210;21.112;2022-12-20T16:32:57;2.00;99.90
50989;DHT22;37008;52.210;21.112;2022-12-20T16:35:25;2.00;99.90
50989;DHT22;37008;52.210;21.112;2022-12-20T16:37:52;2.00;99.90
50989;DHT22;37008;52.210;21.112;2022-12-20T16:40:21;2.00;99.90
50989;DHT22;37008;52.210;21.112;2022-12-20T16:42:47;2.00;99.90
50989;DHT22;37008;52.210;21.112;2022-12-20T16:45:16;2.00;99.90
50989;DHT22;37008;52.210;21.112;2022-12-20T16:47:48;2.10;99.90
50989;DHT22;37008;52.210;21.112;2022-12-20T16:50:15;2.10;99.90
50989;DHT22;37008;52.210;21.112;2022-12-20T16:52:40;2.10;99.90
50989;DHT22;37008;52.210;21.112;2022-12-20T16:55:12;2.10;99.90
50989;DHT22;37008;52.210;21.112;2022-12-20T16:57:38;2.20;99.90
50989;DHT22;37008;52.210;21.112;2022-12-20T17:00:05;2.20;99.90
50989;DHT22;37008;52.210;21.112;2022-12-20T17:02:32;2.20;99.90
50989;DHT22;37008;52.210;21.112;2022-12-20T17:04:58;2.20;99.90
50989;DHT22;37008;52.210;21.112;2022-12-20T17:07:24;2.20;99.90
50989;DHT22;37008;52.210;21.112;2022-12-20T17:09:50;2.30;99.90
50989;DHT22;37008;52.210;21.112;2022-12-20T17:12:20;2.30;99.90
50989;DHT22;37008;52.210;21.112;2022-12-20T17:14:47;2.30;99.90
50989;DHT22;37008;52.210;21.112;2022-12-20T17:17:13;2.30;99.90